Terminal Aerodrome Forecast
Issued by NWS Twin Cities, MN

Home | Current Version | Previous Version | Text Only | Print | Product List | Glossary Off
Versions: 1 2 3 4 5 6 7 8 9 10 11 12 13 14 15 16 17 18 19 20 21

000
FTUS43 KMPX 201700
TAFSTC
TAF
KSTC 201737Z 2018/2118 19014G20KT P6SM FEW045 SCT200
     FM210100 18008KT P6SM BKN200
      TEMPO 2109/2113 3SM BR
     FM211400 16009KT 6SM HZ SCT080 SCT150=

USA.gov is the U.S. government's official web portal to all federal, state and local government web resources and services.